Terminal Aerodrome Forecast
Issued by NWS

Home | Current Version | Previous Version | Text Only | Print | Product List | Glossary On
Versions: 1 2 3 4 5 6 7 8 9 10 11 12 13 14 15 16 17 18 19 20 21 22 23 24 25 26 27 28 29 30
000
FTUS45 KBOI 160952 AAA
TAFJER
TAF AMD
KJER 160952Z 1610/1706 05010KT P6SM SCT009
      TEMPO 1610/1614 3SM -SN BR BKN009
     FM161500 06008KT 3SM BR BKN008
     FM161900 05007KT 5SM BR BKN015=

USA.gov is the U.S. government's official web portal to all federal, state and local government web resources and services.